createdAt,value
2023-05-08T00:00:32.829Z,498.00
2023-05-08T00:01:32.876Z,498.00
2023-05-08T00:02:33.168Z,500.00
2023-05-08T00:03:33.152Z,499.00
2023-05-08T00:04:33.109Z,501.00
2023-05-08T00:05:33.135Z,499.00
2023-05-08T00:06:33.192Z,498.00
2023-05-08T00:07:33.252Z,496.00
2023-05-08T00:08:33.357Z,495.00
2023-05-08T00:09:33.418Z,500.00
2023-05-08T00:10:33.428Z,499.00
2023-05-08T00:11:33.508Z,496.00
2023-05-08T00:12:33.640Z,498.00
2023-05-08T00:13:33.633Z,500.00
2023-05-08T00:14:33.697Z,500.00
2023-05-08T00:15:33.769Z,501.00
2023-05-08T00:16:33.827Z,501.00
2023-05-08T00:17:33.898Z,500.00
2023-05-08T00:18:33.919Z,500.00
2023-05-08T00:19:33.978Z,499.00
2023-05-08T00:20:34.008Z,498.00
2023-05-08T00:21:34.084Z,495.00
2023-05-08T00:22:34.183Z,494.00
2023-05-08T00:23:34.182Z,496.00
2023-05-08T00:24:34.197Z,496.00
2023-05-08T00:25:34.258Z,496.00
2023-05-08T00:26:34.310Z,497.00
2023-05-08T00:27:34.386Z,500.00
2023-05-08T00:28:34.439Z,499.00
2023-05-08T00:29:34.530Z,497.00
2023-05-08T00:30:34.548Z,496.00
2023-05-08T00:31:34.628Z,495.00
2023-05-08T00:32:34.684Z,495.00
2023-05-08T00:33:34.730Z,495.00
2023-05-08T00:34:34.744Z,495.00
2023-05-08T00:35:34.799Z,497.00
2023-05-08T00:36:34.844Z,498.00
2023-05-08T00:37:34.901Z,497.00
2023-05-08T00:38:34.961Z,496.00
2023-05-08T00:39:35.941Z,499.00
2023-05-08T00:40:35.089Z,500.00
2023-05-08T00:41:35.111Z,500.00
2023-05-08T00:42:35.208Z,498.00
2023-05-08T00:43:35.296Z,498.00
2023-05-08T00:44:35.290Z,499.00
2023-05-08T00:45:35.355Z,501.00
2023-05-08T00:46:35.456Z,502.00
2023-05-08T00:47:35.495Z,503.00
2023-05-08T00:48:35.498Z,502.00
2023-05-08T00:49:35.633Z,502.00
2023-05-08T00:50:35.614Z,504.00
2023-05-08T00:51:35.659Z,503.00
2023-05-08T00:52:35.713Z,501.00
2023-05-08T00:53:35.781Z,501.00
2023-05-08T00:54:35.829Z,502.00
2023-05-08T00:55:35.907Z,503.00
2023-05-08T00:56:35.936Z,505.00
2023-05-08T00:57:36.944Z,505.00
2023-05-08T00:58:36.060Z,507.00
2023-05-08T00:59:36.105Z,507.00
2023-05-08T01:00:36.166Z,507.00
2023-05-08T01:01:36.224Z,508.00
2023-05-08T01:02:36.375Z,509.00
2023-05-08T01:03:36.489Z,511.00
2023-05-08T01:04:36.377Z,510.00
2023-05-08T01:05:36.542Z,511.00
2023-05-08T01:06:36.475Z,513.00
2023-05-08T01:07:36.517Z,512.00
2023-05-08T01:08:36.593Z,512.00
2023-05-08T01:09:36.656Z,510.00
2023-05-08T01:10:36.699Z,512.00
2023-05-08T01:11:36.763Z,511.00
2023-05-08T01:12:36.866Z,512.00
2023-05-08T01:13:36.860Z,510.00
2023-05-08T01:14:36.924Z,509.00
2023-05-08T01:15:37.064Z,508.00
2023-05-08T01:16:37.149Z,506.00
2023-05-08T01:17:37.107Z,505.00
2023-05-08T01:18:37.953Z,504.00
2023-05-08T01:19:37.201Z,507.00
2023-05-08T01:20:37.260Z,508.00
2023-05-08T01:21:37.320Z,509.00
2023-05-08T01:22:37.382Z,506.00
2023-05-08T01:23:37.448Z,507.00
2023-05-08T01:24:37.508Z,506.00
2023-05-08T01:25:37.568Z,508.00
2023-05-08T01:26:37.634Z,505.00
2023-05-08T01:27:37.703Z,504.00
2023-05-08T01:28:37.770Z,505.00
2023-05-08T01:29:37.825Z,504.00
2023-05-08T01:30:37.899Z,505.00
2023-05-08T01:31:38.513Z,503.00
2023-05-08T01:32:38.063Z,505.00
2023-05-08T01:33:38.138Z,506.00
2023-05-08T01:34:38.165Z,507.00
2023-05-08T01:35:38.228Z,507.00
2023-05-08T01:36:38.307Z,505.00
2023-05-08T01:37:38.375Z,506.00
2023-05-08T01:38:38.435Z,506.00
2023-05-08T01:39:39.495Z,506.00
2023-05-08T01:40:38.567Z,507.00
2023-05-08T01:41:38.703Z,504.00
2023-05-08T01:42:38.694Z,504.00
2023-05-08T01:43:38.766Z,504.00
2023-05-08T01:44:38.834Z,502.00
2023-05-08T01:45:38.895Z,501.00
2023-05-08T01:46:39.069Z,503.00
2023-05-08T01:47:39.096Z,502.00
2023-05-08T01:48:39.156Z,505.00
2023-05-08T01:49:39.228Z,504.00
2023-05-08T01:50:39.225Z,503.00
2023-05-08T01:51:39.297Z,503.00
2023-05-08T01:52:39.333Z,503.00
2023-05-08T01:53:39.378Z,499.00
2023-05-08T01:54:39.427Z,499.00
2023-05-08T01:55:39.480Z,498.00
2023-05-08T01:56:39.547Z,498.00
2023-05-08T01:57:39.602Z,498.00
2023-05-08T01:58:39.643Z,497.00
2023-05-08T01:59:39.696Z,500.00
2023-05-08T02:00:39.797Z,499.00
2023-05-08T02:01:39.853Z,498.00
2023-05-08T02:02:39.974Z,499.00
2023-05-08T02:03:39.984Z,498.00
2023-05-08T02:04:39.953Z,500.00
2023-05-08T02:05:40.000Z,501.00
2023-05-08T02:06:40.048Z,501.00
2023-05-08T02:07:40.101Z,498.00
2023-05-08T02:08:40.149Z,496.00
2023-05-08T02:09:40.201Z,496.00
2023-05-08T02:10:40.266Z,497.00
2023-05-08T02:11:40.314Z,497.00
2023-05-08T02:12:40.409Z,496.00
2023-05-08T02:13:40.415Z,496.00
2023-05-08T02:14:40.485Z,495.00
2023-05-08T02:15:40.524Z,494.00
2023-05-08T02:16:40.611Z,494.00
2023-05-08T02:17:40.654Z,492.00
2023-05-08T02:18:40.656Z,492.00
2023-05-08T02:19:40.713Z,493.00
2023-05-08T02:20:40.776Z,494.00
2023-05-08T02:21:40.830Z,495.00
2023-05-08T02:22:40.910Z,498.00
2023-05-08T02:23:40.894Z,498.00
2023-05-08T02:24:40.945Z,498.00
2023-05-08T02:25:41.000Z,497.00
2023-05-08T02:26:41.054Z,499.00
2023-05-08T02:27:41.101Z,499.00
2023-05-08T02:28:41.150Z,501.00
2023-05-08T02:29:41.199Z,500.00
2023-05-08T02:30:41.244Z,500.00
2023-05-08T02:31:41.317Z,499.00
2023-05-08T02:32:41.361Z,498.00
2023-05-08T02:33:41.396Z,498.00
2023-05-08T02:34:51.204Z,500.00
2023-05-08T02:35:42.444Z,497.00
2023-05-08T02:36:41.433Z,500.00
2023-05-08T02:37:41.433Z,497.00
2023-05-08T02:38:41.423Z,499.00
2023-05-08T02:39:41.989Z,499.00
2023-05-08T02:40:41.414Z,499.00
2023-05-08T02:41:41.462Z,498.00
2023-05-08T02:42:41.417Z,498.00
2023-05-08T02:43:41.392Z,497.00
2023-05-08T02:44:41.413Z,494.00
2023-05-08T02:45:41.402Z,494.00
2023-05-08T02:46:41.510Z,493.00
2023-05-08T02:47:41.557Z,492.00
2023-05-08T02:48:41.526Z,491.00
2023-05-08T02:49:41.586Z,492.00
2023-05-08T02:50:41.718Z,494.00
2023-05-08T02:51:41.688Z,496.00
2023-05-08T02:52:41.738Z,497.00
2023-05-08T02:53:41.800Z,495.00
2023-05-08T02:54:41.851Z,493.00
2023-05-08T02:55:41.897Z,491.00
2023-05-08T02:56:41.951Z,493.00
2023-05-08T02:57:42.011Z,490.00
2023-05-08T02:58:42.059Z,492.00
2023-05-08T02:59:42.118Z,493.00
2023-05-08T03:00:42.158Z,495.00
2023-05-08T03:01:42.231Z,495.00
2023-05-08T03:02:42.358Z,495.00
2023-05-08T03:03:42.477Z,495.00
2023-05-08T03:04:42.382Z,498.00
2023-05-08T03:05:42.431Z,500.00
2023-05-08T03:06:42.486Z,501.00
2023-05-08T03:07:42.526Z,504.00
2023-05-08T03:08:42.578Z,501.00
2023-05-08T03:09:42.677Z,500.00
2023-05-08T03:10:42.754Z,502.00
2023-05-08T03:11:42.761Z,503.00
2023-05-08T03:12:43.009Z,505.00
2023-05-08T03:13:42.847Z,503.00
2023-05-08T03:14:42.902Z,500.00
2023-05-08T03:15:42.989Z,498.00
2023-05-08T03:16:43.004Z,497.00
2023-05-08T03:17:43.123Z,496.00
2023-05-08T03:18:43.220Z,495.00
2023-05-08T03:19:43.202Z,495.00
2023-05-08T03:20:43.229Z,494.00
2023-05-08T03:21:43.284Z,493.00
2023-05-08T03:22:43.327Z,492.00
2023-05-08T03:23:44.000Z,492.00
2023-05-08T03:24:43.442Z,492.00
2023-05-08T03:25:43.488Z,493.00
2023-05-08T03:26:43.545Z,493.00
2023-05-08T03:27:43.600Z,495.00
2023-05-08T03:28:43.664Z,498.00
2023-05-08T03:29:44.002Z,500.00
2023-05-08T03:30:43.769Z,499.00
2023-05-08T03:31:43.967Z,501.00
2023-05-08T03:32:43.910Z,500.00
2023-05-08T03:33:43.945Z,500.00
2023-05-08T03:34:43.993Z,501.00
2023-05-08T03:35:44.048Z,503.00
2023-05-08T03:36:44.113Z,501.00
2023-05-08T03:37:45.005Z,501.00
2023-05-08T03:38:44.264Z,502.00
2023-05-08T03:39:44.278Z,500.00
2023-05-08T03:40:44.335Z,497.00
2023-05-08T03:41:44.396Z,498.00
2023-05-08T03:42:44.435Z,502.00
2023-05-08T03:43:44.513Z,505.00
2023-05-08T03:44:44.551Z,507.00
2023-05-08T03:45:44.584Z,505.00
2023-05-08T03:46:44.694Z,505.00
2023-05-08T03:47:44.750Z,501.00
2023-05-08T03:48:44.727Z,499.00
2023-05-08T03:49:44.805Z,496.00
2023-05-08T03:50:44.869Z,496.00
2023-05-08T03:51:44.905Z,500.00
2023-05-08T03:52:44.954Z,501.00
2023-05-08T03:53:45.022Z,502.00
2023-05-08T03:54:45.092Z,497.00
2023-05-08T03:55:45.167Z,496.00
2023-05-08T03:56:45.200Z,497.00
2023-05-08T03:57:45.245Z,496.00
2023-05-08T03:58:45.292Z,496.00
2023-05-08T03:59:45.348Z,500.00
2023-05-08T04:00:45.400Z,499.00
2023-05-08T04:01:45.476Z,499.00
2023-05-08T04:02:45.553Z,497.00
2023-05-08T04:03:45.771Z,496.00
2023-05-08T04:04:45.637Z,495.00
2023-05-08T04:05:45.674Z,495.00
2023-05-08T04:06:50.093Z,495.00
2023-05-08T04:07:46.820Z,496.00
2023-05-08T04:08:45.742Z,497.00
2023-05-08T04:09:45.750Z,494.00
2023-05-08T04:10:45.750Z,494.00
2023-05-08T04:11:45.751Z,494.00
2023-05-08T04:12:45.801Z,493.00
2023-05-08T04:13:45.740Z,493.00
2023-05-08T04:14:45.747Z,491.00
2023-05-08T04:15:45.745Z,493.00
2023-05-08T04:16:45.846Z,491.00
2023-05-08T04:17:45.934Z,490.00
2023-05-08T04:18:45.948Z,492.00
2023-05-08T04:19:45.958Z,495.00
2023-05-08T04:20:46.313Z,495.00
2023-05-08T04:21:46.081Z,498.00
2023-05-08T04:22:46.212Z,497.00
2023-05-08T04:23:46.198Z,498.00
2023-05-08T04:24:46.278Z,499.00
2023-05-08T04:25:46.351Z,496.00
2023-05-08T04:26:46.396Z,492.00
2023-05-08T04:27:46.461Z,495.00
2023-05-08T04:28:46.512Z,496.00
2023-05-08T04:29:46.578Z,493.00
2023-05-08T04:30:46.637Z,494.00
2023-05-08T04:31:46.747Z,495.00
2023-05-08T04:32:47.166Z,498.00
2023-05-08T04:33:46.813Z,498.00
2023-05-08T04:34:46.883Z,498.00
2023-05-08T04:35:46.959Z,498.00
2023-05-08T04:36:46.984Z,497.00
2023-05-08T04:37:47.069Z,495.00
2023-05-08T04:38:47.084Z,495.00
2023-05-08T04:39:47.148Z,499.00
2023-05-08T04:40:47.285Z,498.00
2023-05-08T04:41:47.260Z,496.00
2023-05-08T04:42:47.508Z,497.00
2023-05-08T04:43:47.354Z,497.00
2023-05-08T04:44:47.592Z,495.00
2023-05-08T04:45:47.458Z,493.00
2023-05-08T04:46:47.478Z,492.00
2023-05-08T04:47:47.562Z,490.00
2023-05-08T04:48:47.570Z,489.00
2023-05-08T04:49:47.576Z,490.00
2023-05-08T04:50:47.631Z,491.00
2023-05-08T04:51:47.657Z,489.00
2023-05-08T04:52:47.692Z,489.00
2023-05-08T04:53:47.724Z,487.00
2023-05-08T04:54:47.776Z,490.00
2023-05-08T04:55:47.835Z,493.00
2023-05-08T04:56:47.898Z,494.00
2023-05-08T04:57:47.954Z,493.00
2023-05-08T04:58:48.002Z,492.00
2023-05-08T04:59:48.064Z,489.00
2023-05-08T05:00:48.105Z,490.00
2023-05-08T05:01:48.211Z,491.00
2023-05-08T05:02:48.672Z,492.00
2023-05-08T05:03:48.274Z,494.00
2023-05-08T05:04:48.303Z,494.00
2023-05-08T05:05:48.375Z,495.00
2023-05-08T05:06:48.420Z,493.00
2023-05-08T05:07:48.469Z,490.00
2023-05-08T05:08:48.519Z,490.00
2023-05-08T05:09:48.556Z,486.00
2023-05-08T05:10:48.590Z,487.00
2023-05-08T05:11:48.707Z,490.00
2023-05-08T05:12:48.719Z,491.00
2023-05-08T05:13:48.711Z,491.00
2023-05-08T05:14:48.754Z,492.00
2023-05-08T05:15:48.831Z,494.00
2023-05-08T05:16:48.831Z,494.00
2023-05-08T05:17:48.898Z,497.00
2023-05-08T05:18:48.854Z,498.00
2023-05-08T05:19:50.408Z,501.00
2023-05-08T05:20:49.111Z,507.00
2023-05-08T05:21:49.120Z,508.00
2023-05-08T05:22:49.129Z,506.00
2023-05-08T05:23:49.166Z,510.00
2023-05-08T05:24:49.185Z,518.00
2023-05-08T05:25:50.082Z,532.00
2023-05-08T05:26:49.212Z,570.00
2023-05-08T05:27:49.219Z,573.00
2023-05-08T05:28:49.240Z,605.00
2023-05-08T05:29:49.262Z,634.00
2023-05-08T05:30:49.286Z,644.00
2023-05-08T05:31:49.311Z,662.00
2023-05-08T05:32:49.358Z,755.00
2023-05-08T05:33:49.316Z,778.00
2023-05-08T05:34:49.320Z,852.00
2023-05-08T05:35:49.378Z,875.00
2023-05-08T05:36:49.301Z,907.00
2023-05-08T05:37:49.297Z,915.00
2023-05-08T05:38:49.305Z,969.00
2023-05-08T05:39:49.347Z,1004.00
2023-05-08T05:40:49.388Z,1030.00
2023-05-08T05:41:49.428Z,1107.00
2023-05-08T05:42:49.473Z,1129.00
2023-05-08T05:43:49.557Z,1184.00
2023-05-08T05:44:49.597Z,1193.00
2023-05-08T05:45:49.644Z,1197.00
2023-05-08T05:46:49.730Z,1288.00
2023-05-08T05:47:50.134Z,1300.00
2023-05-08T05:48:49.865Z,1314.00
2023-05-08T05:49:49.842Z,1328.00
2023-05-08T05:50:50.568Z,1385.00
2023-05-08T05:51:49.908Z,1393.00
2023-05-08T05:52:49.966Z,1440.00
2023-05-08T05:53:49.978Z,1450.00
2023-05-08T05:54:50.045Z,1485.00
2023-05-08T05:55:50.053Z,1547.00
2023-05-08T05:56:50.079Z,1581.00
2023-05-08T05:57:50.113Z,1588.00
2023-05-08T05:58:50.201Z,1597.00
2023-05-08T05:59:50.165Z,1683.00
2023-05-08T06:00:50.216Z,1674.00
2023-05-08T06:01:50.232Z,1696.00
2023-05-08T06:02:50.300Z,1725.00
2023-05-08T06:03:50.442Z,1738.00
2023-05-08T06:04:50.295Z,1772.00
2023-05-08T06:05:50.324Z,1807.00
2023-05-08T06:06:50.319Z,1825.00
2023-05-08T06:07:50.404Z,1833.00
2023-05-08T06:08:50.368Z,1842.00
2023-05-08T06:09:50.394Z,1849.00
2023-05-08T06:10:50.419Z,1866.00
2023-05-08T06:11:50.532Z,1875.00
2023-05-08T06:12:50.557Z,1880.00
2023-05-08T06:13:50.776Z,1877.00
2023-05-08T06:14:50.539Z,1874.00
2023-05-08T06:15:50.582Z,1875.00
2023-05-08T06:16:50.633Z,1870.00
2023-05-08T06:17:50.655Z,1841.00
2023-05-08T06:18:50.668Z,1791.00
2023-05-08T06:19:50.753Z,1752.00
2023-05-08T06:20:50.793Z,1714.00
2023-05-08T06:21:50.803Z,1699.00
2023-05-08T06:22:50.859Z,1692.00
2023-05-08T06:23:50.925Z,1677.00
2023-05-08T06:24:50.973Z,1680.00
2023-05-08T06:25:51.019Z,1552.00
2023-05-08T06:26:51.081Z,1368.00
2023-05-08T06:27:51.591Z,1235.00
2023-05-08T06:28:51.201Z,1179.00
2023-05-08T06:29:51.166Z,1100.00
2023-05-08T06:30:51.198Z,1027.00
2023-05-08T06:31:51.164Z,957.00
2023-05-08T06:32:51.220Z,893.00
2023-05-08T06:33:51.200Z,883.00
2023-05-08T06:34:51.228Z,870.00
2023-05-08T06:35:51.270Z,847.00
2023-05-08T06:36:51.334Z,782.00
2023-05-08T06:37:51.371Z,777.00
2023-05-08T06:38:51.427Z,758.00
2023-05-08T06:40:03.835Z,747.00
2023-05-08T06:40:52.532Z,735.00
2023-05-08T06:41:51.503Z,714.00
2023-05-08T06:42:51.477Z,699.00
2023-05-08T06:43:51.477Z,694.00
2023-05-08T06:44:51.484Z,690.00
2023-05-08T06:45:51.499Z,684.00
2023-05-08T06:46:51.501Z,679.00
2023-05-08T06:47:51.640Z,664.00
2023-05-08T06:48:51.470Z,666.00
2023-05-08T06:49:51.489Z,669.00
2023-05-08T06:50:51.471Z,666.00
2023-05-08T06:51:52.083Z,663.00
2023-05-08T06:52:51.559Z,666.00
2023-05-08T06:53:51.601Z,668.00
2023-05-08T06:54:51.638Z,669.00
2023-05-08T06:55:51.685Z,668.00
2023-05-08T06:56:51.734Z,665.00
2023-05-08T06:57:51.786Z,660.00
2023-05-08T06:59:00.944Z,660.00
2023-05-08T06:59:53.597Z,664.00
2023-05-08T07:00:51.934Z,666.00
2023-05-08T07:01:51.856Z,666.00
2023-05-08T07:02:51.918Z,667.00
2023-05-08T07:03:51.841Z,664.00
2023-05-08T07:04:51.861Z,666.00
2023-05-08T07:05:51.849Z,670.00
2023-05-08T07:06:51.835Z,669.00
2023-05-08T07:07:51.843Z,666.00
2023-05-08T07:08:51.896Z,668.00
2023-05-08T07:09:51.846Z,663.00
2023-05-08T07:10:51.843Z,658.00
2023-05-08T07:11:51.829Z,655.00
2023-05-08T07:12:51.948Z,654.00
2023-05-08T07:13:51.928Z,655.00
2023-05-08T07:14:51.995Z,659.00
2023-05-08T07:15:52.063Z,733.00
2023-05-08T07:16:52.118Z,701.00
2023-05-08T07:17:52.264Z,630.00
2023-05-08T07:18:52.251Z,628.00
2023-05-08T07:19:52.339Z,606.00
2023-05-08T07:20:52.388Z,581.00
2023-05-08T07:21:52.512Z,558.00
2023-05-08T07:22:53.097Z,545.00
2023-05-08T07:23:52.579Z,532.00
2023-05-08T07:24:52.724Z,522.00
2023-05-08T07:25:52.735Z,511.00
2023-05-08T07:26:52.792Z,498.00
2023-05-08T07:27:53.602Z,490.00
2023-05-08T07:28:52.914Z,481.00
2023-05-08T07:29:52.982Z,472.00
2023-05-08T07:30:53.075Z,467.00
2023-05-08T07:31:53.158Z,464.00
2023-05-08T07:32:53.171Z,459.00
2023-05-08T07:33:53.191Z,454.00
2023-05-08T07:34:53.301Z,451.00
2023-05-08T07:35:53.264Z,449.00
2023-05-08T07:36:55.105Z,445.00
2023-05-08T07:37:53.277Z,442.00
2023-05-08T07:38:54.100Z,441.00
2023-05-08T07:39:53.291Z,441.00
2023-05-08T07:40:53.308Z,439.00
2023-05-08T07:41:53.361Z,437.00
2023-05-08T07:42:53.316Z,434.00
2023-05-08T07:43:53.328Z,434.00
2023-05-08T07:44:54.994Z,433.00
2023-05-08T07:45:53.366Z,432.00
2023-05-08T07:46:53.407Z,429.00
2023-05-08T07:47:53.470Z,425.00
2023-05-08T07:48:53.395Z,425.00
2023-05-08T07:49:53.361Z,423.00
2023-05-08T07:50:53.357Z,424.00
2023-05-08T07:51:53.366Z,426.00
2023-05-08T07:52:53.613Z,424.00
2023-05-08T07:53:53.383Z,423.00
2023-05-08T07:54:53.409Z,420.00
2023-05-08T07:55:53.419Z,421.00
2023-05-08T07:56:53.408Z,421.00
2023-05-08T07:57:53.450Z,421.00
2023-05-08T07:58:53.430Z,422.00
2023-05-08T07:59:53.432Z,420.00
2023-05-08T08:00:53.448Z,418.00
2023-05-08T08:01:53.501Z,417.00
2023-05-08T08:02:53.575Z,416.00
2023-05-08T08:03:53.599Z,413.00
2023-05-08T08:04:53.475Z,409.00
2023-05-08T08:05:53.544Z,408.00
2023-05-08T08:06:53.492Z,411.00
2023-05-08T08:07:53.509Z,413.00
2023-05-08T08:08:53.519Z,412.00
2023-05-08T08:09:53.521Z,412.00
2023-05-08T08:10:53.521Z,414.00
2023-05-08T08:11:53.539Z,414.00
2023-05-08T08:12:53.621Z,426.00
2023-05-08T08:13:53.625Z,483.00
2023-05-08T08:14:53.712Z,483.00
2023-05-08T08:15:53.691Z,497.00
2023-05-08T08:16:53.772Z,495.00
2023-05-08T08:17:53.844Z,551.00
2023-05-08T08:18:53.787Z,545.00
2023-05-08T08:19:53.935Z,546.00
2023-05-08T08:20:53.946Z,544.00
2023-05-08T08:21:53.942Z,571.00
2023-05-08T08:22:54.024Z,587.00
2023-05-08T08:23:54.080Z,607.00
2023-05-08T08:24:55.006Z,578.00
2023-05-08T08:25:54.211Z,600.00
2023-05-08T08:26:54.269Z,601.00
2023-05-08T08:27:54.338Z,643.00
2023-05-08T08:28:54.404Z,633.00
2023-05-08T08:30:01.494Z,614.00
2023-05-08T08:30:55.462Z,567.00
2023-05-08T08:31:54.493Z,563.00
2023-05-08T08:32:54.536Z,539.00
2023-05-08T08:33:54.450Z,533.00
2023-05-08T08:34:54.538Z,608.00
2023-05-08T08:35:54.564Z,632.00
2023-05-08T08:36:54.483Z,626.00
2023-05-08T08:37:54.480Z,627.00
2023-05-08T08:38:54.507Z,643.00
2023-05-08T08:39:54.518Z,685.00
2023-05-08T08:40:54.579Z,746.00
2023-05-08T08:41:54.499Z,767.00
2023-05-08T08:42:54.481Z,818.00
2023-05-08T08:43:54.568Z,852.00
2023-05-08T08:44:54.489Z,881.00
2023-05-08T08:45:54.561Z,929.00
2023-05-08T08:46:54.647Z,956.00
2023-05-08T08:48:54.583Z,1057.00
2023-05-08T08:49:54.570Z,1074.00
2023-05-08T08:50:54.579Z,1108.00
2023-05-08T08:51:54.661Z,1113.00
2023-05-08T08:52:54.652Z,1128.00
2023-05-08T08:53:54.655Z,1165.00
2023-05-08T08:54:54.741Z,1217.00
2023-05-08T08:55:54.802Z,1238.00
2023-05-08T08:56:54.838Z,1314.00
2023-05-08T08:57:54.882Z,1330.00
2023-05-08T08:58:54.917Z,1336.00
2023-05-08T08:59:54.972Z,1074.00
2023-05-08T09:00:55.008Z,1008.00
2023-05-08T09:01:55.024Z,941.00
2023-05-08T09:02:55.071Z,874.00
2023-05-08T09:03:55.087Z,807.00
2023-05-08T09:04:55.111Z,783.00
2023-05-08T09:05:55.176Z,778.00
2023-05-08T09:06:55.224Z,743.00
2023-05-08T09:07:55.359Z,740.00
2023-05-08T09:08:55.391Z,738.00
2023-05-08T09:09:56.135Z,739.00
2023-05-08T09:10:55.441Z,751.00
2023-05-08T09:11:55.481Z,771.00
2023-05-08T09:12:55.547Z,776.00
2023-05-08T09:13:55.589Z,761.00
2023-05-08T09:14:55.674Z,752.00
2023-05-08T09:15:55.759Z,746.00
2023-05-08T09:16:55.777Z,741.00
2023-05-08T09:17:55.881Z,739.00
2023-05-08T09:18:55.898Z,743.00
2023-05-08T09:19:55.961Z,732.00
2023-05-08T09:20:56.055Z,730.00
2023-05-08T09:21:56.091Z,643.00
2023-05-08T09:22:56.141Z,608.00
2023-05-08T09:23:56.178Z,685.00
2023-05-08T09:24:56.245Z,715.00
2023-05-08T09:25:56.289Z,727.00
2023-05-08T09:26:56.356Z,805.00
2023-05-08T09:27:56.420Z,827.00
2023-05-08T09:28:56.585Z,863.00
2023-05-08T09:29:56.502Z,910.00
2023-05-08T09:30:56.555Z,931.00
2023-05-08T09:31:56.632Z,1029.00
2023-05-08T09:32:56.604Z,1049.00
2023-05-08T09:33:56.530Z,1095.00
2023-05-08T09:34:56.544Z,1102.00
2023-05-08T09:35:56.548Z,1113.00
2023-05-08T09:36:56.578Z,1125.00
2023-05-08T09:37:57.381Z,1165.00
2023-05-08T09:38:56.685Z,1192.00
2023-05-08T09:39:56.812Z,1247.00
2023-05-08T09:40:56.754Z,1285.00
2023-05-08T09:41:56.796Z,1299.00
2023-05-08T09:42:56.804Z,1308.00
2023-05-08T09:43:56.820Z,1381.00
2023-05-08T09:44:56.838Z,1385.00
2023-05-08T09:45:56.881Z,1394.00
2023-05-08T09:46:56.881Z,1416.00
2023-05-08T09:47:56.934Z,1447.00
2023-05-08T09:48:56.906Z,1501.00
2023-05-08T09:49:56.917Z,1507.00
2023-05-08T09:50:56.914Z,1533.00
2023-05-08T09:51:56.916Z,1569.00
2023-05-08T09:52:56.924Z,1599.00
2023-05-08T09:53:56.920Z,1627.00
2023-05-08T09:54:56.936Z,1691.00
2023-05-08T09:55:57.318Z,1708.00
2023-05-08T09:56:56.879Z,1717.00
2023-05-08T09:57:56.898Z,1738.00
2023-05-08T09:58:56.872Z,1781.00
2023-05-08T09:59:56.847Z,1801.00
2023-05-08T10:00:56.920Z,1820.00
2023-05-08T10:01:56.820Z,1851.00
2023-05-08T10:02:56.834Z,1889.00
2023-05-08T10:03:56.829Z,1904.00
2023-05-08T10:04:56.848Z,1939.00
2023-05-08T10:05:56.806Z,1975.00
2023-05-08T10:06:56.802Z,1989.00
2023-05-08T10:07:56.833Z,2009.00
2023-05-08T10:08:56.842Z,2043.00
2023-05-08T10:09:56.858Z,2071.00
2023-05-08T10:10:56.839Z,2119.00
2023-05-08T10:11:56.946Z,2261.00
2023-05-08T10:12:56.923Z,2201.00
2023-05-08T10:13:56.857Z,2187.00
2023-05-08T10:14:57.661Z,1919.00
2023-05-08T10:15:56.844Z,1934.00
2023-05-08T10:16:56.871Z,2028.00
2023-05-08T10:17:56.858Z,2038.00
2023-05-08T10:18:56.823Z,2091.00
2023-05-08T10:19:56.839Z,2106.00
2023-05-08T10:20:56.840Z,2112.00
2023-05-08T10:21:56.845Z,2126.00
2023-05-08T10:22:56.872Z,2155.00
2023-05-08T10:23:56.840Z,2205.00
2023-05-08T10:24:56.837Z,2285.00
2023-05-08T10:25:56.830Z,2316.00
2023-05-08T10:27:05.640Z,2352.00
2023-05-08T10:27:57.963Z,2368.00
2023-05-08T10:28:56.801Z,2447.00
2023-05-08T10:29:56.779Z,2454.00
2023-05-08T10:30:56.796Z,2456.00
2023-05-08T10:31:56.733Z,2459.00
2023-05-08T10:32:56.733Z,2469.00
2023-05-08T10:33:56.713Z,2482.00
2023-05-08T10:34:56.675Z,2489.00
2023-05-08T10:35:56.663Z,2519.00
2023-05-08T10:36:56.635Z,2513.00
2023-05-08T10:37:56.693Z,2515.00
2023-05-08T10:38:57.677Z,2517.00
2023-05-08T10:39:56.790Z,2510.00
2023-05-08T10:40:56.832Z,2510.00
2023-05-08T10:41:56.879Z,2514.00
2023-05-08T10:42:56.949Z,2516.00
2023-05-08T10:43:58.077Z,2515.00
2023-05-08T10:44:56.886Z,2487.00
2023-05-08T10:45:56.897Z,2460.00
2023-05-08T10:46:56.841Z,2461.00
2023-05-08T10:47:56.885Z,2449.00
2023-05-08T10:48:56.794Z,2428.00
2023-05-08T10:49:57.175Z,2358.00
2023-05-08T10:50:56.777Z,2362.00
2023-05-08T10:51:56.818Z,2369.00
2023-05-08T10:52:56.875Z,2362.00
2023-05-08T10:53:56.916Z,2351.00
2023-05-08T10:54:56.971Z,2344.00
2023-05-08T10:55:57.607Z,2332.00
2023-05-08T10:56:57.071Z,2324.00
2023-05-08T10:57:57.118Z,2317.00
2023-05-08T10:58:57.170Z,2308.00
2023-05-08T10:59:57.226Z,2286.00
2023-05-08T11:00:57.231Z,2143.00
2023-05-08T11:01:57.320Z,2095.00
2023-05-08T11:02:57.395Z,2100.00
2023-05-08T11:03:57.703Z,2112.00
2023-05-08T11:04:57.385Z,1813.00
2023-05-08T11:05:57.398Z,1789.00
2023-05-08T11:06:57.407Z,1784.00
2023-05-08T11:07:57.415Z,1785.00
2023-05-08T11:09:00.510Z,1786.00
2023-05-08T11:09:57.371Z,1792.00
2023-05-08T11:10:57.359Z,1728.00
2023-05-08T11:11:58.144Z,1735.00
2023-05-08T11:12:57.357Z,1657.00
2023-05-08T11:13:57.307Z,1626.00
2023-05-08T11:14:57.293Z,1605.00
2023-05-08T11:15:57.335Z,1606.00
2023-05-08T11:16:57.262Z,1548.00
2023-05-08T11:17:57.276Z,1509.00
2023-05-08T11:18:57.238Z,1327.00
2023-05-08T11:19:57.246Z,1287.00
2023-05-08T11:20:57.210Z,1234.00
2023-05-08T11:21:57.199Z,1178.00
2023-05-08T11:22:57.180Z,1150.00
2023-05-08T11:23:57.181Z,1135.00
2023-05-08T11:24:57.158Z,1127.00
2023-05-08T11:25:57.138Z,1097.00
2023-05-08T11:26:57.131Z,1074.00
2023-05-08T11:27:57.116Z,1027.00
2023-05-08T11:28:57.111Z,1012.00
2023-05-08T11:29:57.102Z,1007.00
2023-05-08T11:30:57.081Z,992.00
2023-05-08T11:31:57.104Z,983.00
2023-05-08T11:32:57.172Z,950.00
2023-05-08T11:33:57.052Z,939.00
2023-05-08T11:34:57.036Z,932.00
2023-05-08T11:35:57.044Z,928.00
2023-05-08T11:36:57.069Z,923.00
2023-05-08T11:37:57.006Z,895.00
2023-05-08T11:38:56.996Z,873.00
2023-05-08T11:39:57.063Z,859.00
2023-05-08T11:40:56.979Z,828.00
2023-05-08T11:41:56.992Z,814.00
2023-05-08T11:42:56.958Z,807.00
2023-05-08T11:43:56.970Z,800.00
2023-05-08T11:44:56.962Z,774.00
2023-05-08T11:45:56.914Z,768.00
2023-05-08T11:46:57.287Z,756.00
2023-05-08T11:47:56.919Z,747.00
2023-05-08T11:48:56.876Z,727.00
2023-05-08T11:49:56.855Z,713.00
2023-05-08T11:50:56.847Z,704.00
2023-05-08T11:51:57.708Z,694.00
2023-05-08T11:52:56.821Z,687.00
2023-05-08T11:53:56.824Z,679.00
2023-05-08T11:54:56.885Z,669.00
2023-05-08T11:55:56.929Z,659.00
2023-05-08T11:56:56.991Z,648.00
2023-05-08T11:57:57.046Z,634.00
2023-05-08T11:58:57.106Z,626.00
2023-05-08T11:59:57.150Z,619.00
2023-05-08T12:00:57.272Z,614.00
2023-05-08T12:02:07.468Z,604.00
2023-05-08T12:02:58.394Z,596.00
2023-05-08T12:03:57.409Z,590.00
2023-05-08T12:04:57.281Z,587.00
2023-05-08T12:05:57.242Z,581.00
2023-05-08T12:06:57.221Z,577.00
2023-05-08T12:07:57.207Z,572.00
2023-05-08T12:08:57.239Z,569.00
2023-05-08T12:09:57.266Z,779.00
2023-05-08T12:10:57.181Z,926.00
2023-05-08T12:11:57.227Z,706.00
2023-05-08T12:12:57.317Z,768.00
2023-05-08T12:13:57.330Z,708.00
2023-05-08T12:14:57.332Z,659.00
2023-05-08T12:15:57.333Z,610.00
2023-05-08T12:16:57.432Z,608.00
2023-05-08T12:17:57.395Z,599.00
2023-05-08T12:18:57.351Z,601.00
2023-05-08T12:19:57.430Z,823.00
2023-05-08T12:20:57.351Z,885.00
2023-05-08T12:21:57.337Z,894.00
2023-05-08T12:22:57.340Z,887.00
2023-05-08T12:23:57.339Z,866.00